sensor_id;sensor_type;location;lat;lon;timestamp;P1;durP1;ratioP1;P2;durP2;ratioP2
77010;SDS011;65945;53.148;17.956;2023-12-14T00:00:37;21.60;;;9.00;;
77010;SDS011;65945;53.148;17.956;2023-12-14T00:03:23;28.90;;;11.90;;
77010;SDS011;65945;53.148;17.956;2023-12-14T00:05:50;22.00;;;9.80;;
77010;SDS011;65945;53.148;17.956;2023-12-14T00:08:16;27.40;;;12.30;;
77010;SDS011;65945;53.148;17.956;2023-12-14T00:10:43;24.30;;;11.80;;
77010;SDS011;65945;53.148;17.956;2023-12-14T00:13:10;20.30;;;8.50;;
77010;SDS011;65945;53.148;17.956;2023-12-14T00:15:36;18.80;;;7.40;;
77010;SDS011;65945;53.148;17.956;2023-12-14T00:18:03;22.30;;;9.30;;
77010;SDS011;65945;53.148;17.956;2023-12-14T00:20:29;23.70;;;10.20;;
77010;SDS011;65945;53.148;17.956;2023-12-14T00:22:56;21.80;;;9.40;;
77010;SDS011;65945;53.148;17.956;2023-12-14T00:25:22;19.70;;;8.00;;
77010;SDS011;65945;53.148;17.956;2023-12-14T00:27:49;19.80;;;7.70;;
77010;SDS011;65945;53.148;17.956;2023-12-14T00:30:16;20.60;;;9.80;;
77010;SDS011;65945;53.148;17.956;2023-12-14T00:32:42;22.20;;;9.90;;
77010;SDS011;65945;53.148;17.956;2023-12-14T00:35:09;18.30;;;9.10;;
77010;SDS011;65945;53.148;17.956;2023-12-14T00:37:35;20.40;;;9.10;;
77010;SDS011;65945;53.148;17.956;2023-12-14T00:40:02;20.20;;;9.00;;
77010;SDS011;65945;53.148;17.956;2023-12-14T00:42:30;19.70;;;8.10;;
77010;SDS011;65945;53.148;17.956;2023-12-14T00:44:57;19.00;;;7.40;;
77010;SDS011;65945;53.148;17.956;2023-12-14T00:47:23;20.60;;;8.20;;
77010;SDS011;65945;53.148;17.956;2023-12-14T00:49:50;16.50;;;7.60;;
77010;SDS011;65945;53.148;17.956;2023-12-14T00:52:16;16.90;;;7.30;;
77010;SDS011;65945;53.148;17.956;2023-12-14T00:54:43;16.80;;;7.40;;
77010;SDS011;65945;53.148;17.956;2023-12-14T00:57:09;18.90;;;8.50;;
77010;SDS011;65945;53.148;17.956;2023-12-14T00:59:36;25.80;;;10.30;;
77010;SDS011;65945;53.148;17.956;2023-12-14T01:02:02;18.10;;;8.40;;
77010;SDS011;65945;53.148;17.956;2023-12-14T01:04:29;12.90;;;6.10;;
77010;SDS011;65945;53.148;17.956;2023-12-14T01:06:56;19.40;;;9.00;;
77010;SDS011;65945;53.148;17.956;2023-12-14T01:09:22;19.20;;;8.10;;
77010;SDS011;65945;53.148;17.956;2023-12-14T01:11:49;17.20;;;8.20;;
77010;SDS011;65945;53.148;17.956;2023-12-14T01:14:16;17.90;;;7.70;;
77010;SDS011;65945;53.148;17.956;2023-12-14T01:16:42;18.80;;;7.40;;
77010;SDS011;65945;53.148;17.956;2023-12-14T01:19:09;19.90;;;8.40;;
77010;SDS011;65945;53.148;17.956;2023-12-14T01:21:35;25.00;;;10.70;;
77010;SDS011;65945;53.148;17.956;2023-12-14T01:24:02;19.10;;;7.20;;
77010;SDS011;65945;53.148;17.956;2023-12-14T01:26:29;24.40;;;9.60;;
77010;SDS011;65945;53.148;17.956;2023-12-14T01:28:55;24.60;;;10.20;;
77010;SDS011;65945;53.148;17.956;2023-12-14T01:31:22;23.40;;;9.50;;
77010;SDS011;65945;53.148;17.956;2023-12-14T01:33:49;24.50;;;10.00;;
77010;SDS011;65945;53.148;17.956;2023-12-14T01:36:20;22.90;;;8.90;;
77010;SDS011;65945;53.148;17.956;2023-12-14T01:38:50;18.20;;;8.70;;
77010;SDS011;65945;53.148;17.956;2023-12-14T01:41:17;22.70;;;9.60;;
77010;SDS011;65945;53.148;17.956;2023-12-14T01:43:44;17.40;;;7.60;;
77010;SDS011;65945;53.148;17.956;2023-12-14T01:46:11;16.40;;;6.90;;
77010;SDS011;65945;53.148;17.956;2023-12-14T01:48:39;23.80;;;9.70;;
77010;SDS011;65945;53.148;17.956;2023-12-14T01:51:05;20.50;;;9.30;;
77010;SDS011;65945;53.148;17.956;2023-12-14T01:53:32;21.30;;;8.80;;
77010;SDS011;65945;53.148;17.956;2023-12-14T01:55:59;17.60;;;6.60;;
77010;SDS011;65945;53.148;17.956;2023-12-14T01:58:25;24.90;;;10.70;;
77010;SDS011;65945;53.148;17.956;2023-12-14T02:03:45;16.50;;;6.50;;
77010;SDS011;65945;53.148;17.956;2023-12-14T02:06:12;22.00;;;8.70;;
77010;SDS011;65945;53.148;17.956;2023-12-14T02:08:39;23.70;;;9.50;;
77010;SDS011;65945;53.148;17.956;2023-12-14T02:11:06;21.10;;;7.30;;
77010;SDS011;65945;53.148;17.956;2023-12-14T02:13:33;23.30;;;8.80;;
77010;SDS011;65945;53.148;17.956;2023-12-14T02:16:00;22.10;;;9.40;;
77010;SDS011;65945;53.148;17.956;2023-12-14T02:18:26;22.80;;;9.70;;
77010;SDS011;65945;53.148;17.956;2023-12-14T02:20:53;18.50;;;7.40;;
77010;SDS011;65945;53.148;17.956;2023-12-14T02:23:19;22.00;;;9.70;;
77010;SDS011;65945;53.148;17.956;2023-12-14T02:25:46;20.60;;;8.10;;
77010;SDS011;65945;53.148;17.956;2023-12-14T02:28:13;22.60;;;9.80;;
77010;SDS011;65945;53.148;17.956;2023-12-14T02:30:39;24.10;;;9.00;;
77010;SDS011;65945;53.148;17.956;2023-12-14T02:33:06;22.00;;;8.20;;
77010;SDS011;65945;53.148;17.956;2023-12-14T02:35:32;11.90;;;5.30;;
77010;SDS011;65945;53.148;17.956;2023-12-14T02:37:59;21.50;;;8.10;;
77010;SDS011;65945;53.148;17.956;2023-12-14T02:40:25;22.20;;;9.30;;
77010;SDS011;65945;53.148;17.956;2023-12-14T02:42:52;19.50;;;8.20;;
77010;SDS011;65945;53.148;17.956;2023-12-14T02:45:18;24.80;;;9.30;;
77010;SDS011;65945;53.148;17.956;2023-12-14T02:47:45;24.30;;;9.60;;
77010;SDS011;65945;53.148;17.956;2023-12-14T02:50:14;16.00;;;6.30;;
77010;SDS011;65945;53.148;17.956;2023-12-14T02:52:40;24.40;;;9.50;;
77010;SDS011;65945;53.148;17.956;2023-12-14T02:55:07;21.00;;;7.90;;
77010;SDS011;65945;53.148;17.956;2023-12-14T02:57:33;23.90;;;9.90;;
77010;SDS011;65945;53.148;17.956;2023-12-14T03:00:00;22.60;;;8.50;;
77010;SDS011;65945;53.148;17.956;2023-12-14T03:02:27;23.50;;;10.20;;
77010;SDS011;65945;53.148;17.956;2023-12-14T03:04:53;23.10;;;8.80;;
77010;SDS011;65945;53.148;17.956;2023-12-14T03:07:20;25.20;;;10.20;;
77010;SDS011;65945;53.148;17.956;2023-12-14T03:09:46;20.90;;;9.00;;
77010;SDS011;65945;53.148;17.956;2023-12-14T03:12:13;21.70;;;8.30;;
77010;SDS011;65945;53.148;17.956;2023-12-14T03:14:39;21.80;;;8.40;;
77010;SDS011;65945;53.148;17.956;2023-12-14T03:17:07;18.60;;;7.10;;
77010;SDS011;65945;53.148;17.956;2023-12-14T03:19:39;20.30;;;7.60;;
77010;SDS011;65945;53.148;17.956;2023-12-14T03:22:07;21.40;;;9.10;;
77010;SDS011;65945;53.148;17.956;2023-12-14T03:24:35;24.20;;;8.50;;
77010;SDS011;65945;53.148;17.956;2023-12-14T03:27:03;24.80;;;10.30;;
77010;SDS011;65945;53.148;17.956;2023-12-14T03:29:30;19.60;;;8.60;;
77010;SDS011;65945;53.148;17.956;2023-12-14T03:31:57;23.10;;;9.40;;
77010;SDS011;65945;53.148;17.956;2023-12-14T03:34:24;21.10;;;9.50;;
77010;SDS011;65945;53.148;17.956;2023-12-14T03:36:51;18.10;;;7.20;;
77010;SDS011;65945;53.148;17.956;2023-12-14T03:39:17;22.20;;;9.60;;
77010;SDS011;65945;53.148;17.956;2023-12-14T03:41:44;20.70;;;8.10;;
77010;SDS011;65945;53.148;17.956;2023-12-14T03:44:12;18.20;;;8.10;;
77010;SDS011;65945;53.148;17.956;2023-12-14T03:46:38;14.90;;;7.00;;
77010;SDS011;65945;53.148;17.956;2023-12-14T03:49:05;22.60;;;8.50;;
77010;SDS011;65945;53.148;17.956;2023-12-14T03:51:32;17.20;;;8.90;;
77010;SDS011;65945;53.148;17.956;2023-12-14T03:53:58;18.40;;;8.60;;
77010;SDS011;65945;53.148;17.956;2023-12-14T03:56:25;21.20;;;8.70;;
77010;SDS011;65945;53.148;17.956;2023-12-14T03:58:52;15.70;;;7.90;;
77010;SDS011;65945;53.148;17.956;2023-12-14T04:01:19;12.00;;;5.00;;
77010;SDS011;65945;53.148;17.956;2023-12-14T04:03:47;16.50;;;8.20;;
77010;SDS011;65945;53.148;17.956;2023-12-14T04:06:14;13.40;;;6.20;;
77010;SDS011;65945;53.148;17.956;2023-12-14T04:08:41;17.20;;;8.80;;
77010;SDS011;65945;53.148;17.956;2023-12-14T04:11:08;17.30;;;8.70;;
77010;SDS011;65945;53.148;17.956;2023-12-14T04:13:35;16.10;;;8.40;;
77010;SDS011;65945;53.148;17.956;2023-12-14T04:16:02;16.00;;;8.90;;
77010;SDS011;65945;53.148;17.956;2023-12-14T04:18:30;15.00;;;6.90;;
77010;SDS011;65945;53.148;17.956;2023-12-14T04:20:57;14.70;;;6.90;;
77010;SDS011;65945;53.148;17.956;2023-12-14T04:23:23;15.20;;;7.70;;
77010;SDS011;65945;53.148;17.956;2023-12-14T04:25:50;14.50;;;8.10;;
77010;SDS011;65945;53.148;17.956;2023-12-14T04:28:16;16.20;;;8.00;;
77010;SDS011;65945;53.148;17.956;2023-12-14T04:30:43;18.50;;;8.20;;
77010;SDS011;65945;53.148;17.956;2023-12-14T04:33:09;15.10;;;7.80;;
77010;SDS011;65945;53.148;17.956;2023-12-14T04:35:36;11.80;;;6.20;;
77010;SDS011;65945;53.148;17.956;2023-12-14T04:38:02;12.20;;;6.30;;
77010;SDS011;65945;53.148;17.956;2023-12-14T04:40:29;16.80;;;7.00;;
77010;SDS011;65945;53.148;17.956;2023-12-14T04:42:56;15.00;;;7.30;;
77010;SDS011;65945;53.148;17.956;2023-12-14T04:45:22;15.70;;;7.50;;
77010;SDS011;65945;53.148;17.956;2023-12-14T04:47:49;14.50;;;7.40;;
77010;SDS011;65945;53.148;17.956;2023-12-14T04:50:15;11.40;;;6.10;;
77010;SDS011;65945;53.148;17.956;2023-12-14T04:52:42;13.90;;;7.30;;
77010;SDS011;65945;53.148;17.956;2023-12-14T04:55:11;12.20;;;7.30;;
77010;SDS011;65945;53.148;17.956;2023-12-14T04:57:38;14.00;;;6.80;;
77010;SDS011;65945;53.148;17.956;2023-12-14T05:00:05;18.00;;;8.20;;
77010;SDS011;65945;53.148;17.956;2023-12-14T05:02:32;13.80;;;7.10;;
77010;SDS011;65945;53.148;17.956;2023-12-14T05:04:59;15.00;;;6.60;;
77010;SDS011;65945;53.148;17.956;2023-12-14T05:07:26;8.50;;;4.20;;
77010;SDS011;65945;53.148;17.956;2023-12-14T05:09:52;14.00;;;6.60;;
77010;SDS011;65945;53.148;17.956;2023-12-14T05:12:19;12.80;;;6.40;;
77010;SDS011;65945;53.148;17.956;2023-12-14T05:14:45;9.90;;;5.10;;
77010;SDS011;65945;53.148;17.956;2023-12-14T05:17:12;12.80;;;5.90;;
77010;SDS011;65945;53.148;17.956;2023-12-14T05:19:38;14.60;;;6.90;;
77010;SDS011;65945;53.148;17.956;2023-12-14T05:22:05;11.80;;;5.90;;
77010;SDS011;65945;53.148;17.956;2023-12-14T05:24:31;10.80;;;5.70;;
77010;SDS011;65945;53.148;17.956;2023-12-14T05:26:58;14.70;;;7.00;;
77010;SDS011;65945;53.148;17.956;2023-12-14T05:29:25;13.50;;;6.40;;
77010;SDS011;65945;53.148;17.956;2023-12-14T05:31:51;15.70;;;7.50;;
77010;SDS011;65945;53.148;17.956;2023-12-14T05:34:18;14.40;;;6.90;;
77010;SDS011;65945;53.148;17.956;2023-12-14T05:36:44;16.90;;;8.50;;
77010;SDS011;65945;53.148;17.956;2023-12-14T05:39:11;13.20;;;6.70;;
77010;SDS011;65945;53.148;17.956;2023-12-14T05:41:40;13.90;;;7.00;;
77010;SDS011;65945;53.148;17.956;2023-12-14T05:44:07;15.40;;;7.10;;
77010;SDS011;65945;53.148;17.956;2023-12-14T05:46:34;12.70;;;6.70;;
77010;SDS011;65945;53.148;17.956;2023-12-14T05:49:02;13.80;;;7.40;;
77010;SDS011;65945;53.148;17.956;2023-12-14T05:51:32;9.70;;;5.30;;
77010;SDS011;65945;53.148;17.956;2023-12-14T05:53:59;10.30;;;4.70;;
77010;SDS011;65945;53.148;17.956;2023-12-14T05:56:26;14.20;;;6.40;;
77010;SDS011;65945;53.148;17.956;2023-12-14T05:58:53;13.20;;;6.00;;
77010;SDS011;65945;53.148;17.956;2023-12-14T06:01:20;12.40;;;6.40;;
77010;SDS011;65945;53.148;17.956;2023-12-14T06:03:46;14.70;;;6.80;;
77010;SDS011;65945;53.148;17.956;2023-12-14T06:06:13;15.70;;;7.50;;
77010;SDS011;65945;53.148;17.956;2023-12-14T06:08:40;14.30;;;7.40;;
77010;SDS011;65945;53.148;17.956;2023-12-14T06:11:07;17.50;;;8.90;;
77010;SDS011;65945;53.148;17.956;2023-12-14T06:13:35;15.90;;;8.00;;
77010;SDS011;65945;53.148;17.956;2023-12-14T06:16:01;20.40;;;11.30;;
77010;SDS011;65945;53.148;17.956;2023-12-14T06:18:29;25.20;;;13.10;;
77010;SDS011;65945;53.148;17.956;2023-12-14T06:20:56;19.80;;;10.80;;
77010;SDS011;65945;53.148;17.956;2023-12-14T06:23:23;15.70;;;7.30;;
77010;SDS011;65945;53.148;17.956;2023-12-14T06:25:49;17.60;;;7.80;;
77010;SDS011;65945;53.148;17.956;2023-12-14T06:28:16;17.30;;;8.70;;
77010;SDS011;65945;53.148;17.956;2023-12-14T06:30:42;18.10;;;8.20;;
77010;SDS011;65945;53.148;17.956;2023-12-14T06:33:09;15.50;;;7.90;;
77010;SDS011;65945;53.148;17.956;2023-12-14T06:35:36;13.20;;;6.10;;
77010;SDS011;65945;53.148;17.956;2023-12-14T06:38:03;15.70;;;7.70;;
77010;SDS011;65945;53.148;17.956;2023-12-14T06:40:29;14.40;;;7.00;;
77010;SDS011;65945;53.148;17.956;2023-12-14T06:42:56;15.60;;;7.00;;
77010;SDS011;65945;53.148;17.956;2023-12-14T06:45:22;18.40;;;9.30;;
77010;SDS011;65945;53.148;17.956;2023-12-14T06:47:49;17.30;;;7.80;;
77010;SDS011;65945;53.148;17.956;2023-12-14T06:50:16;16.30;;;7.00;;
77010;SDS011;65945;53.148;17.956;2023-12-14T06:52:42;10.40;;;5.40;;
77010;SDS011;65945;53.148;17.956;2023-12-14T06:55:09;23.60;;;10.10;;
77010;SDS011;65945;53.148;17.956;2023-12-14T06:57:36;16.00;;;7.80;;
77010;SDS011;65945;53.148;17.956;2023-12-14T07:00:03;14.40;;;7.40;;
77010;SDS011;65945;53.148;17.956;2023-12-14T07:02:30;16.00;;;8.10;;
77010;SDS011;65945;53.148;17.956;2023-12-14T07:04:57;17.30;;;6.60;;
77010;SDS011;65945;53.148;17.956;2023-12-14T07:07:23;34.80;;;16.50;;
77010;SDS011;65945;53.148;17.956;2023-12-14T07:09:51;24.50;;;11.40;;
77010;SDS011;65945;53.148;17.956;2023-12-14T07:12:17;15.70;;;7.90;;
77010;SDS011;65945;53.148;17.956;2023-12-14T07:14:44;19.50;;;9.00;;
77010;SDS011;65945;53.148;17.956;2023-12-14T07:17:10;14.20;;;7.20;;
77010;SDS011;65945;53.148;17.956;2023-12-14T07:19:37;14.30;;;7.80;;
77010;SDS011;65945;53.148;17.956;2023-12-14T07:22:04;16.90;;;8.40;;
77010;SDS011;65945;53.148;17.956;2023-12-14T07:24:30;17.60;;;8.20;;
77010;SDS011;65945;53.148;17.956;2023-12-14T07:26:57;16.50;;;8.30;;
77010;SDS011;65945;53.148;17.956;2023-12-14T07:29:23;17.50;;;8.90;;
77010;SDS011;65945;53.148;17.956;2023-12-14T07:31:50;17.40;;;9.90;;
77010;SDS011;65945;53.148;17.956;2023-12-14T07:34:16;15.00;;;7.80;;
77010;SDS011;65945;53.148;17.956;2023-12-14T07:36:43;10.50;;;5.60;;
77010;SDS011;65945;53.148;17.956;2023-12-14T07:39:10;13.70;;;6.40;;
77010;SDS011;65945;53.148;17.956;2023-12-14T07:41:36;14.80;;;5.80;;
77010;SDS011;65945;53.148;17.956;2023-12-14T07:44:03;13.90;;;6.30;;
77010;SDS011;65945;53.148;17.956;2023-12-14T07:46:30;12.40;;;6.20;;
77010;SDS011;65945;53.148;17.956;2023-12-14T07:48:57;15.50;;;6.10;;
77010;SDS011;65945;53.148;17.956;2023-12-14T07:51:24;17.00;;;7.50;;
77010;SDS011;65945;53.148;17.956;2023-12-14T07:53:50;15.40;;;7.10;;
77010;SDS011;65945;53.148;17.956;2023-12-14T07:56:17;11.00;;;5.80;;
77010;SDS011;65945;53.148;17.956;2023-12-14T07:58:43;16.50;;;7.90;;
77010;SDS011;65945;53.148;17.956;2023-12-14T08:01:10;18.00;;;9.50;;
77010;SDS011;65945;53.148;17.956;2023-12-14T08:03:36;14.80;;;7.50;;
77010;SDS011;65945;53.148;17.956;2023-12-14T08:06:03;11.90;;;5.30;;
77010;SDS011;65945;53.148;17.956;2023-12-14T08:08:30;12.80;;;6.30;;
77010;SDS011;65945;53.148;17.956;2023-12-14T08:10:56;13.80;;;6.30;;
77010;SDS011;65945;53.148;17.956;2023-12-14T08:13:23;13.50;;;6.30;;
77010;SDS011;65945;53.148;17.956;2023-12-14T08:15:49;14.40;;;7.10;;
77010;SDS011;65945;53.148;17.956;2023-12-14T08:18:17;11.30;;;5.20;;
77010;SDS011;65945;53.148;17.956;2023-12-14T08:20:43;14.80;;;6.90;;
77010;SDS011;65945;53.148;17.956;2023-12-14T08:23:10;13.90;;;7.00;;
77010;SDS011;65945;53.148;17.956;2023-12-14T08:25:36;17.80;;;7.20;;
77010;SDS011;65945;53.148;17.956;2023-12-14T08:28:03;16.50;;;7.50;;
77010;SDS011;65945;53.148;17.956;2023-12-14T08:30:30;15.00;;;6.80;;
77010;SDS011;65945;53.148;17.956;2023-12-14T08:32:56;15.50;;;7.00;;
77010;SDS011;65945;53.148;17.956;2023-12-14T08:35:23;14.30;;;6.70;;
77010;SDS011;65945;53.148;17.956;2023-12-14T08:37:49;20.10;;;8.20;;
77010;SDS011;65945;53.148;17.956;2023-12-14T08:40:16;12.70;;;5.60;;
77010;SDS011;65945;53.148;17.956;2023-12-14T08:42:43;13.30;;;6.30;;
77010;SDS011;65945;53.148;17.956;2023-12-14T08:45:09;15.70;;;7.90;;
77010;SDS011;65945;53.148;17.956;2023-12-14T08:47:37;13.80;;;7.00;;
77010;SDS011;65945;53.148;17.956;2023-12-14T08:50:05;12.90;;;6.00;;
77010;SDS011;65945;53.148;17.956;2023-12-14T08:52:32;15.60;;;7.00;;
77010;SDS011;65945;53.148;17.956;2023-12-14T08:54:59;16.90;;;7.80;;
77010;SDS011;65945;53.148;17.956;2023-12-14T08:57:25;13.80;;;6.40;;
77010;SDS011;65945;53.148;17.956;2023-12-14T08:59:52;14.20;;;6.80;;
77010;SDS011;65945;53.148;17.956;2023-12-14T09:02:18;17.10;;;8.50;;
77010;SDS011;65945;53.148;17.956;2023-12-14T09:04:45;26.40;;;8.50;;
77010;SDS011;65945;53.148;17.956;2023-12-14T09:07:12;17.30;;;6.60;;
77010;SDS011;65945;53.148;17.956;2023-12-14T09:09:38;15.60;;;7.50;;
77010;SDS011;65945;53.148;17.956;2023-12-14T09:12:05;12.20;;;5.70;;
77010;SDS011;65945;53.148;17.956;2023-12-14T09:14:32;11.50;;;5.10;;
77010;SDS011;65945;53.148;17.956;2023-12-14T09:16:58;11.40;;;6.00;;
77010;SDS011;65945;53.148;17.956;2023-12-14T09:19:25;12.60;;;6.60;;
77010;SDS011;65945;53.148;17.956;2023-12-14T09:21:51;13.60;;;7.10;;
77010;SDS011;65945;53.148;17.956;2023-12-14T09:24:18;16.40;;;9.00;;
77010;SDS011;65945;53.148;17.956;2023-12-14T09:26:44;21.50;;;10.90;;
77010;SDS011;65945;53.148;17.956;2023-12-14T09:29:11;16.70;;;7.00;;
77010;SDS011;65945;53.148;17.956;2023-12-14T09:31:40;10.90;;;5.50;;
77010;SDS011;65945;53.148;17.956;2023-12-14T09:34:11;11.30;;;5.00;;
77010;SDS011;65945;53.148;17.956;2023-12-14T09:36:39;15.80;;;6.60;;
77010;SDS011;65945;53.148;17.956;2023-12-14T09:39:07;11.80;;;5.00;;
77010;SDS011;65945;53.148;17.956;2023-12-14T09:41:37;14.10;;;6.30;;
77010;SDS011;65945;53.148;17.956;2023-12-14T09:44:05;14.10;;;5.80;;
77010;SDS011;65945;53.148;17.956;2023-12-14T09:46:33;15.30;;;6.70;;
77010;SDS011;65945;53.148;17.956;2023-12-14T09:49:03;10.40;;;4.90;;
77010;SDS011;65945;53.148;17.956;2023-12-14T09:51:31;11.70;;;5.30;;
77010;SDS011;65945;53.148;17.956;2023-12-14T09:53:57;11.60;;;5.20;;
77010;SDS011;65945;53.148;17.956;2023-12-14T09:56:25;14.50;;;6.90;;
77010;SDS011;65945;53.148;17.956;2023-12-14T09:58:55;13.20;;;5.90;;
77010;SDS011;65945;53.148;17.956;2023-12-14T10:01:25;9.80;;;4.80;;
77010;SDS011;65945;53.148;17.956;2023-12-14T10:04:06;10.30;;;4.50;;
77010;SDS011;65945;53.148;17.956;2023-12-14T10:06:34;10.40;;;4.60;;
77010;SDS011;65945;53.148;17.956;2023-12-14T10:09:01;14.50;;;7.10;;
77010;SDS011;65945;53.148;17.956;2023-12-14T10:11:28;17.70;;;6.80;;
77010;SDS011;65945;53.148;17.956;2023-12-14T10:13:54;13.50;;;6.20;;
77010;SDS011;65945;53.148;17.956;2023-12-14T10:16:31;11.20;;;5.80;;
77010;SDS011;65945;53.148;17.956;2023-12-14T10:18:59;10.70;;;4.60;;
77010;SDS011;65945;53.148;17.956;2023-12-14T10:21:27;15.30;;;5.70;;
77010;SDS011;65945;53.148;17.956;2023-12-14T10:23:56;13.00;;;5.40;;
77010;SDS011;65945;53.148;17.956;2023-12-14T10:26:24;10.80;;;5.40;;
77010;SDS011;65945;53.148;17.956;2023-12-14T10:28:52;9.80;;;3.80;;
77010;SDS011;65945;53.148;17.956;2023-12-14T10:31:19;8.40;;;4.20;;
77010;SDS011;65945;53.148;17.956;2023-12-14T10:33:46;9.20;;;4.40;;
77010;SDS011;65945;53.148;17.956;2023-12-14T10:36:13;16.60;;;6.90;;
77010;SDS011;65945;53.148;17.956;2023-12-14T10:38:42;7.60;;;4.40;;
77010;SDS011;65945;53.148;17.956;2023-12-14T10:41:09;7.10;;;3.00;;
77010;SDS011;65945;53.148;17.956;2023-12-14T10:43:40;9.40;;;4.50;;
77010;SDS011;65945;53.148;17.956;2023-12-14T10:46:09;7.50;;;3.80;;
77010;SDS011;65945;53.148;17.956;2023-12-14T10:48:36;8.20;;;4.10;;
77010;SDS011;65945;53.148;17.956;2023-12-14T10:51:03;8.70;;;4.30;;
77010;SDS011;65945;53.148;17.956;2023-12-14T10:53:32;7.50;;;3.50;;
77010;SDS011;65945;53.148;17.956;2023-12-14T10:56:00;8.50;;;4.20;;
77010;SDS011;65945;53.148;17.956;2023-12-14T10:58:53;10.50;;;3.90;;
77010;SDS011;65945;53.148;17.956;2023-12-14T11:01:24;7.90;;;3.20;;
77010;SDS011;65945;53.148;17.956;2023-12-14T11:03:54;6.60;;;3.10;;
77010;SDS011;65945;53.148;17.956;2023-12-14T11:06:30;6.70;;;3.30;;
77010;SDS011;65945;53.148;17.956;2023-12-14T11:09:04;7.50;;;3.50;;
77010;SDS011;65945;53.148;17.956;2023-12-14T11:11:42;6.50;;;3.00;;
77010;SDS011;65945;53.148;17.956;2023-12-14T11:14:19;6.00;;;2.90;;
77010;SDS011;65945;53.148;17.956;2023-12-14T11:16:47;4.10;;;2.30;;
77010;SDS011;65945;53.148;17.956;2023-12-14T11:21:47;8.40;;;3.60;;
77010;SDS011;65945;53.148;17.956;2023-12-14T11:24:14;6.90;;;2.70;;
77010;SDS011;65945;53.148;17.956;2023-12-14T11:26:41;8.20;;;3.50;;
77010;SDS011;65945;53.148;17.956;2023-12-14T11:29:08;5.30;;;2.60;;
77010;SDS011;65945;53.148;17.956;2023-12-14T11:31:34;5.80;;;2.60;;
77010;SDS011;65945;53.148;17.956;2023-12-14T11:34:01;6.00;;;3.40;;
77010;SDS011;65945;53.148;17.956;2023-12-14T11:36:30;6.90;;;3.30;;
77010;SDS011;65945;53.148;17.956;2023-12-14T11:38:58;7.70;;;3.30;;
77010;SDS011;65945;53.148;17.956;2023-12-14T11:41:24;5.60;;;2.90;;
77010;SDS011;65945;53.148;17.956;2023-12-14T11:43:55;6.80;;;3.60;;
77010;SDS011;65945;53.148;17.956;2023-12-14T11:46:22;6.50;;;2.80;;
77010;SDS011;65945;53.148;17.956;2023-12-14T11:48:48;5.40;;;2.60;;
77010;SDS011;65945;53.148;17.956;2023-12-14T11:51:15;6.40;;;3.20;;
77010;SDS011;65945;53.148;17.956;2023-12-14T11:53:46;6.40;;;2.90;;
77010;SDS011;65945;53.148;17.956;2023-12-14T11:56:14;8.60;;;3.70;;
77010;SDS011;65945;53.148;17.956;2023-12-14T11:58:44;9.00;;;3.60;;
77010;SDS011;65945;53.148;17.956;2023-12-14T12:01:14;8.40;;;3.00;;
77010;SDS011;65945;53.148;17.956;2023-12-14T12:03:43;6.90;;;3.40;;
77010;SDS011;65945;53.148;17.956;2023-12-14T12:06:23;6.70;;;3.10;;
77010;SDS011;65945;53.148;17.956;2023-12-14T12:08:51;5.40;;;2.70;;
77010;SDS011;65945;53.148;17.956;2023-12-14T12:11:19;6.40;;;2.90;;
77010;SDS011;65945;53.148;17.956;2023-12-14T12:13:52;5.90;;;2.70;;
77010;SDS011;65945;53.148;17.956;2023-12-14T12:16:20;6.90;;;2.80;;
77010;SDS011;65945;53.148;17.956;2023-12-14T12:18:47;5.00;;;2.40;;
77010;SDS011;65945;53.148;17.956;2023-12-14T12:21:14;4.80;;;2.20;;
77010;SDS011;65945;53.148;17.956;2023-12-14T12:23:41;3.60;;;1.60;;
77010;SDS011;65945;53.148;17.956;2023-12-14T12:26:08;6.00;;;2.50;;
77010;SDS011;65945;53.148;17.956;2023-12-14T12:28:36;4.80;;;2.30;;
77010;SDS011;65945;53.148;17.956;2023-12-14T12:31:03;4.90;;;2.50;;
77010;SDS011;65945;53.148;17.956;2023-12-14T12:33:30;8.60;;;3.50;;
77010;SDS011;65945;53.148;17.956;2023-12-14T12:36:03;8.70;;;3.00;;
77010;SDS011;65945;53.148;17.956;2023-12-14T12:38:30;7.80;;;2.80;;
77010;SDS011;65945;53.148;17.956;2023-12-14T12:40:57;7.40;;;2.90;;
77010;SDS011;65945;53.148;17.956;2023-12-14T12:43:26;4.50;;;2.40;;
77010;SDS011;65945;53.148;17.956;2023-12-14T12:45:52;5.30;;;2.30;;
77010;SDS011;65945;53.148;17.956;2023-12-14T12:48:19;5.70;;;2.60;;
77010;SDS011;65945;53.148;17.956;2023-12-14T12:50:45;9.90;;;3.10;;
77010;SDS011;65945;53.148;17.956;2023-12-14T12:53:12;9.40;;;3.80;;
77010;SDS011;65945;53.148;17.956;2023-12-14T12:55:39;8.20;;;3.50;;
77010;SDS011;65945;53.148;17.956;2023-12-14T12:58:05;8.30;;;2.30;;
77010;SDS011;65945;53.148;17.956;2023-12-14T13:00:33;6.60;;;2.90;;
77010;SDS011;65945;53.148;17.956;2023-12-14T13:03:02;6.30;;;2.30;;
77010;SDS011;65945;53.148;17.956;2023-12-14T13:05:29;4.20;;;1.90;;
77010;SDS011;65945;53.148;17.956;2023-12-14T13:07:55;7.60;;;2.90;;
77010;SDS011;65945;53.148;17.956;2023-12-14T13:10:23;7.00;;;3.40;;
77010;SDS011;65945;53.148;17.956;2023-12-14T13:12:53;8.60;;;2.80;;
77010;SDS011;65945;53.148;17.956;2023-12-14T13:15:21;9.30;;;3.20;;
77010;SDS011;65945;53.148;17.956;2023-12-14T13:17:51;9.30;;;3.20;;
77010;SDS011;65945;53.148;17.956;2023-12-14T13:20:18;8.40;;;3.00;;
77010;SDS011;65945;53.148;17.956;2023-12-14T13:22:45;7.60;;;2.60;;
77010;SDS011;65945;53.148;17.956;2023-12-14T13:25:12;4.60;;;2.30;;
77010;SDS011;65945;53.148;17.956;2023-12-14T13:27:39;4.80;;;2.20;;
77010;SDS011;65945;53.148;17.956;2023-12-14T13:30:07;5.40;;;1.80;;
77010;SDS011;65945;53.148;17.956;2023-12-14T13:32:34;6.60;;;2.20;;
77010;SDS011;65945;53.148;17.956;2023-12-14T13:35:01;3.70;;;1.90;;
77010;SDS011;65945;53.148;17.956;2023-12-14T13:37:28;4.60;;;1.90;;
77010;SDS011;65945;53.148;17.956;2023-12-14T13:39:54;6.00;;;2.10;;
77010;SDS011;65945;53.148;17.956;2023-12-14T13:42:21;4.40;;;2.00;;
77010;SDS011;65945;53.148;17.956;2023-12-14T13:44:47;6.90;;;2.90;;
77010;SDS011;65945;53.148;17.956;2023-12-14T13:47:14;6.60;;;3.10;;
77010;SDS011;65945;53.148;17.956;2023-12-14T13:49:41;8.40;;;3.50;;
77010;SDS011;65945;53.148;17.956;2023-12-14T13:52:07;6.90;;;2.60;;
77010;SDS011;65945;53.148;17.956;2023-12-14T13:54:35;13.20;;;5.40;;
77010;SDS011;65945;53.148;17.956;2023-12-14T13:57:03;8.10;;;3.60;;
77010;SDS011;65945;53.148;17.956;2023-12-14T13:59:29;13.10;;;4.30;;
77010;SDS011;65945;53.148;17.956;2023-12-14T14:01:56;9.90;;;3.40;;
77010;SDS011;65945;53.148;17.956;2023-12-14T14:04:23;9.20;;;2.90;;
77010;SDS011;65945;53.148;17.956;2023-12-14T14:06:49;9.40;;;3.90;;
77010;SDS011;65945;53.148;17.956;2023-12-14T14:09:16;11.80;;;4.60;;
77010;SDS011;65945;53.148;17.956;2023-12-14T14:11:43;9.70;;;4.40;;
77010;SDS011;65945;53.148;17.956;2023-12-14T14:14:13;11.50;;;4.10;;
77010;SDS011;65945;53.148;17.956;2023-12-14T14:16:40;9.40;;;3.50;;
77010;SDS011;65945;53.148;17.956;2023-12-14T14:19:07;11.00;;;3.70;;
77010;SDS011;65945;53.148;17.956;2023-12-14T14:21:33;10.30;;;3.80;;
77010;SDS011;65945;53.148;17.956;2023-12-14T14:24:00;10.20;;;2.90;;
77010;SDS011;65945;53.148;17.956;2023-12-14T14:26:26;8.10;;;3.60;;
77010;SDS011;65945;53.148;17.956;2023-12-14T14:28:53;7.40;;;3.30;;